sensor_id;sensor_type;location;lat;lon;timestamp;temperature;humidity
19952;DHT22;10137;49.406;19.484;2023-12-22T00:00:29;3.30;99.90
19952;DHT22;10137;49.406;19.484;2023-12-22T00:02:56;3.30;99.90
19952;DHT22;10137;49.406;19.484;2023-12-22T00:05:23;3.30;99.90
19952;DHT22;10137;49.406;19.484;2023-12-22T00:07:51;3.30;99.90
19952;DHT22;10137;49.406;19.484;2023-12-22T00:10:18;3.30;99.90
19952;DHT22;10137;49.406;19.484;2023-12-22T00:12:45;3.30;99.90
19952;DHT22;10137;49.406;19.484;2023-12-22T00:15:12;3.30;99.90
19952;DHT22;10137;49.406;19.484;2023-12-22T00:17:39;3.30;99.90
19952;DHT22;10137;49.406;19.484;2023-12-22T00:20:06;3.30;99.90
19952;DHT22;10137;49.406;19.484;2023-12-22T00:22:38;3.40;99.90
19952;DHT22;10137;49.406;19.484;2023-12-22T00:25:07;3.40;99.90
19952;DHT22;10137;49.406;19.484;2023-12-22T00:27:35;3.40;99.90
19952;DHT22;10137;49.406;19.484;2023-12-22T00:30:02;3.40;99.90
19952;DHT22;10137;49.406;19.484;2023-12-22T00:32:29;3.40;99.90
19952;DHT22;10137;49.406;19.484;2023-12-22T00:34:56;3.40;99.90
19952;DHT22;10137;49.406;19.484;2023-12-22T00:37:24;3.40;99.90
19952;DHT22;10137;49.406;19.484;2023-12-22T00:39:50;3.30;99.90
19952;DHT22;10137;49.406;19.484;2023-12-22T00:42:19;3.40;99.90
19952;DHT22;10137;49.406;19.484;2023-12-22T00:44:46;3.30;99.90
19952;DHT22;10137;49.406;19.484;2023-12-22T00:47:12;3.40;99.90
19952;DHT22;10137;49.406;19.484;2023-12-22T00:49:39;3.30;99.90
19952;DHT22;10137;49.406;19.484;2023-12-22T00:52:06;3.40;99.90
19952;DHT22;10137;49.406;19.484;2023-12-22T00:54:33;3.30;99.90
19952;DHT22;10137;49.406;19.484;2023-12-22T00:57:03;3.30;99.90
19952;DHT22;10137;49.406;19.484;2023-12-22T00:59:31;3.30;99.90
19952;DHT22;10137;49.406;19.484;2023-12-22T01:01:58;3.20;99.90
19952;DHT22;10137;49.406;19.484;2023-12-22T01:04:25;3.20;99.90
19952;DHT22;10137;49.406;19.484;2023-12-22T01:06:52;3.30;99.90
19952;DHT22;10137;49.406;19.484;2023-12-22T01:09:19;3.30;99.90
19952;DHT22;10137;49.406;19.484;2023-12-22T01:11:46;3.30;99.90
19952;DHT22;10137;49.406;19.484;2023-12-22T01:14:13;3.30;99.90
19952;DHT22;10137;49.406;19.484;2023-12-22T01:16:41;3.30;99.90
19952;DHT22;10137;49.406;19.484;2023-12-22T01:19:07;3.30;99.90
19952;DHT22;10137;49.406;19.484;2023-12-22T01:21:34;3.20;99.90
19952;DHT22;10137;49.406;19.484;2023-12-22T01:24:01;3.20;99.90
19952;DHT22;10137;49.406;19.484;2023-12-22T01:26:27;3.30;99.90
19952;DHT22;10137;49.406;19.484;2023-12-22T01:28:54;3.30;99.90
19952;DHT22;10137;49.406;19.484;2023-12-22T01:31:21;3.30;99.90
19952;DHT22;10137;49.406;19.484;2023-12-22T01:33:49;3.30;99.90
19952;DHT22;10137;49.406;19.484;2023-12-22T01:36:16;3.20;99.90
19952;DHT22;10137;49.406;19.484;2023-12-22T01:38:43;3.30;99.90
19952;DHT22;10137;49.406;19.484;2023-12-22T01:41:10;3.20;99.90
19952;DHT22;10137;49.406;19.484;2023-12-22T01:43:37;3.30;99.90
19952;DHT22;10137;49.406;19.484;2023-12-22T01:46:04;3.30;99.90
19952;DHT22;10137;49.406;19.484;2023-12-22T01:48:33;3.30;99.90
19952;DHT22;10137;49.406;19.484;2023-12-22T01:51:03;3.20;99.90
19952;DHT22;10137;49.406;19.484;2023-12-22T01:53:31;3.20;99.90
19952;DHT22;10137;49.406;19.484;2023-12-22T01:55:59;3.20;99.90
19952;DHT22;10137;49.406;19.484;2023-12-22T01:58:27;3.20;99.90
19952;DHT22;10137;49.406;19.484;2023-12-22T02:00:54;3.20;99.90
19952;DHT22;10137;49.406;19.484;2023-12-22T02:03:21;3.20;99.90
19952;DHT22;10137;49.406;19.484;2023-12-22T02:05:49;3.20;99.90
19952;DHT22;10137;49.406;19.484;2023-12-22T02:08:18;3.20;99.90
19952;DHT22;10137;49.406;19.484;2023-12-22T02:10:46;3.10;99.90
19952;DHT22;10137;49.406;19.484;2023-12-22T02:13:13;3.10;99.90
19952;DHT22;10137;49.406;19.484;2023-12-22T02:15:40;3.10;99.90
19952;DHT22;10137;49.406;19.484;2023-12-22T02:18:12;3.00;99.90
19952;DHT22;10137;49.406;19.484;2023-12-22T02:20:41;3.00;99.90
19952;DHT22;10137;49.406;19.484;2023-12-22T02:23:11;2.90;99.90
19952;DHT22;10137;49.406;19.484;2023-12-22T02:25:38;2.90;99.90
19952;DHT22;10137;49.406;19.484;2023-12-22T02:28:07;2.90;99.90
19952;DHT22;10137;49.406;19.484;2023-12-22T02:30:38;2.90;99.90
19952;DHT22;10137;49.406;19.484;2023-12-22T02:33:06;2.80;99.90
19952;DHT22;10137;49.406;19.484;2023-12-22T02:35:36;2.70;99.90
19952;DHT22;10137;49.406;19.484;2023-12-22T02:38:07;2.60;99.90
19952;DHT22;10137;49.406;19.484;2023-12-22T02:40:36;2.60;99.90
19952;DHT22;10137;49.406;19.484;2023-12-22T02:43:04;2.60;99.90
19952;DHT22;10137;49.406;19.484;2023-12-22T02:45:32;2.50;99.90
19952;DHT22;10137;49.406;19.484;2023-12-22T02:47:58;2.50;99.90
19952;DHT22;10137;49.406;19.484;2023-12-22T02:50:25;2.70;99.90
19952;DHT22;10137;49.406;19.484;2023-12-22T02:52:52;2.70;99.90
19952;DHT22;10137;49.406;19.484;2023-12-22T02:55:19;2.70;99.90
19952;DHT22;10137;49.406;19.484;2023-12-22T02:57:47;2.70;99.90
19952;DHT22;10137;49.406;19.484;2023-12-22T03:00:15;2.80;99.90
19952;DHT22;10137;49.406;19.484;2023-12-22T03:02:42;2.70;99.90
19952;DHT22;10137;49.406;19.484;2023-12-22T03:05:08;2.80;99.90
19952;DHT22;10137;49.406;19.484;2023-12-22T03:07:35;2.80;99.90
19952;DHT22;10137;49.406;19.484;2023-12-22T03:10:02;2.70;99.90
19952;DHT22;10137;49.406;19.484;2023-12-22T03:12:29;2.80;99.90
19952;DHT22;10137;49.406;19.484;2023-12-22T03:14:57;2.70;99.90
19952;DHT22;10137;49.406;19.484;2023-12-22T03:17:24;2.80;99.90
19952;DHT22;10137;49.406;19.484;2023-12-22T03:19:51;2.70;99.90
19952;DHT22;10137;49.406;19.484;2023-12-22T03:22:18;2.70;99.90
19952;DHT22;10137;49.406;19.484;2023-12-22T03:24:45;2.70;99.90
19952;DHT22;10137;49.406;19.484;2023-12-22T03:27:12;2.60;99.90
19952;DHT22;10137;49.406;19.484;2023-12-22T03:29:41;2.70;99.90
19952;DHT22;10137;49.406;19.484;2023-12-22T03:32:10;2.70;99.90
19952;DHT22;10137;49.406;19.484;2023-12-22T03:34:37;2.60;99.90
19952;DHT22;10137;49.406;19.484;2023-12-22T03:37:03;2.60;99.90
19952;DHT22;10137;49.406;19.484;2023-12-22T03:39:30;2.60;99.90
19952;DHT22;10137;49.406;19.484;2023-12-22T03:41:57;2.60;99.90
19952;DHT22;10137;49.406;19.484;2023-12-22T03:44:24;2.60;99.90
19952;DHT22;10137;49.406;19.484;2023-12-22T03:46:51;2.60;99.90
19952;DHT22;10137;49.406;19.484;2023-12-22T03:49:20;2.60;99.90
19952;DHT22;10137;49.406;19.484;2023-12-22T03:51:46;2.50;99.90
19952;DHT22;10137;49.406;19.484;2023-12-22T03:54:13;2.50;99.90
19952;DHT22;10137;49.406;19.484;2023-12-22T03:56:41;2.50;99.90
19952;DHT22;10137;49.406;19.484;2023-12-22T03:59:08;2.50;99.90
19952;DHT22;10137;49.406;19.484;2023-12-22T04:01:34;2.50;99.90
19952;DHT22;10137;49.406;19.484;2023-12-22T04:04:01;2.50;99.90
19952;DHT22;10137;49.406;19.484;2023-12-22T04:06:29;2.50;99.90
19952;DHT22;10137;49.406;19.484;2023-12-22T04:08:56;2.50;99.90
19952;DHT22;10137;49.406;19.484;2023-12-22T04:11:23;2.40;99.90
19952;DHT22;10137;49.406;19.484;2023-12-22T04:13:50;2.40;99.90
19952;DHT22;10137;49.406;19.484;2023-12-22T04:16:16;2.40;99.90
19952;DHT22;10137;49.406;19.484;2023-12-22T04:18:43;2.40;99.90
19952;DHT22;10137;49.406;19.484;2023-12-22T04:21:10;2.40;99.90
19952;DHT22;10137;49.406;19.484;2023-12-22T04:23:38;2.30;99.90
19952;DHT22;10137;49.406;19.484;2023-12-22T04:26:05;2.30;99.90
19952;DHT22;10137;49.406;19.484;2023-12-22T04:28:35;2.30;99.90
19952;DHT22;10137;49.406;19.484;2023-12-22T04:31:02;2.30;99.90
19952;DHT22;10137;49.406;19.484;2023-12-22T04:33:30;2.30;99.90
19952;DHT22;10137;49.406;19.484;2023-12-22T04:35:57;2.30;99.90
19952;DHT22;10137;49.406;19.484;2023-12-22T04:38:24;2.30;99.90
19952;DHT22;10137;49.406;19.484;2023-12-22T04:40:52;2.20;99.90
19952;DHT22;10137;49.406;19.484;2023-12-22T04:43:19;2.20;99.90
19952;DHT22;10137;49.406;19.484;2023-12-22T04:45:46;2.20;99.90
19952;DHT22;10137;49.406;19.484;2023-12-22T04:48:13;2.20;99.90
19952;DHT22;10137;49.406;19.484;2023-12-22T04:50:40;2.20;99.90
19952;DHT22;10137;49.406;19.484;2023-12-22T04:53:06;2.20;99.90
19952;DHT22;10137;49.406;19.484;2023-12-22T04:55:33;2.20;99.90
19952;DHT22;10137;49.406;19.484;2023-12-22T04:58:01;2.20;99.90
19952;DHT22;10137;49.406;19.484;2023-12-22T05:00:28;2.10;99.90
19952;DHT22;10137;49.406;19.484;2023-12-22T05:02:55;2.10;99.90
19952;DHT22;10137;49.406;19.484;2023-12-22T05:05:22;2.10;99.90
19952;DHT22;10137;49.406;19.484;2023-12-22T05:07:48;2.20;99.90
19952;DHT22;10137;49.406;19.484;2023-12-22T05:10:15;2.10;99.90
19952;DHT22;10137;49.406;19.484;2023-12-22T05:12:42;2.20;99.90
19952;DHT22;10137;49.406;19.484;2023-12-22T05:15:11;2.10;99.90
19952;DHT22;10137;49.406;19.484;2023-12-22T05:17:38;2.20;99.90
19952;DHT22;10137;49.406;19.484;2023-12-22T05:20:07;2.20;99.90
19952;DHT22;10137;49.406;19.484;2023-12-22T05:22:36;2.10;99.90
19952;DHT22;10137;49.406;19.484;2023-12-22T05:25:04;2.10;99.90
19952;DHT22;10137;49.406;19.484;2023-12-22T05:27:31;2.00;99.90
19952;DHT22;10137;49.406;19.484;2023-12-22T05:29:57;2.00;99.90
19952;DHT22;10137;49.406;19.484;2023-12-22T05:32:28;2.10;99.90
19952;DHT22;10137;49.406;19.484;2023-12-22T05:34:55;2.00;99.90
19952;DHT22;10137;49.406;19.484;2023-12-22T05:37:22;2.00;99.90
19952;DHT22;10137;49.406;19.484;2023-12-22T05:39:48;2.00;99.90
19952;DHT22;10137;49.406;19.484;2023-12-22T05:42:15;2.00;99.90
19952;DHT22;10137;49.406;19.484;2023-12-22T05:44:42;2.10;99.90
19952;DHT22;10137;49.406;19.484;2023-12-22T05:47:12;2.10;99.90
19952;DHT22;10137;49.406;19.484;2023-12-22T05:49:41;2.10;99.90
19952;DHT22;10137;49.406;19.484;2023-12-22T05:52:07;2.10;99.90
19952;DHT22;10137;49.406;19.484;2023-12-22T05:54:35;2.00;99.90
19952;DHT22;10137;49.406;19.484;2023-12-22T05:57:04;1.90;99.90
19952;DHT22;10137;49.406;19.484;2023-12-22T05:59:32;1.90;99.90
19952;DHT22;10137;49.406;19.484;2023-12-22T06:02:00;1.90;99.90
19952;DHT22;10137;49.406;19.484;2023-12-22T06:04:28;2.00;99.90
19952;DHT22;10137;49.406;19.484;2023-12-22T06:06:56;2.00;99.90
19952;DHT22;10137;49.406;19.484;2023-12-22T06:09:23;2.00;99.90
19952;DHT22;10137;49.406;19.484;2023-12-22T06:11:50;2.00;99.90
19952;DHT22;10137;49.406;19.484;2023-12-22T06:14:19;2.00;99.90
19952;DHT22;10137;49.406;19.484;2023-12-22T06:16:46;2.00;99.90
19952;DHT22;10137;49.406;19.484;2023-12-22T06:19:13;2.00;99.90
19952;DHT22;10137;49.406;19.484;2023-12-22T06:21:40;2.00;99.90
19952;DHT22;10137;49.406;19.484;2023-12-22T06:24:08;2.10;99.90
19952;DHT22;10137;49.406;19.484;2023-12-22T06:26:35;2.20;99.90
19952;DHT22;10137;49.406;19.484;2023-12-22T06:29:03;2.20;99.90
19952;DHT22;10137;49.406;19.484;2023-12-22T06:31:30;2.20;99.90
19952;DHT22;10137;49.406;19.484;2023-12-22T06:33:57;2.20;99.90
19952;DHT22;10137;49.406;19.484;2023-12-22T06:36:27;2.20;99.90
19952;DHT22;10137;49.406;19.484;2023-12-22T06:38:55;2.20;99.90
19952;DHT22;10137;49.406;19.484;2023-12-22T06:41:25;2.20;99.90
19952;DHT22;10137;49.406;19.484;2023-12-22T06:43:53;2.10;99.90
19952;DHT22;10137;49.406;19.484;2023-12-22T06:46:21;2.20;99.90
19952;DHT22;10137;49.406;19.484;2023-12-22T06:48:49;2.20;99.90
19952;DHT22;10137;49.406;19.484;2023-12-22T06:51:19;2.20;99.90
19952;DHT22;10137;49.406;19.484;2023-12-22T06:53:46;2.20;99.90
19952;DHT22;10137;49.406;19.484;2023-12-22T06:56:17;2.20;99.90
19952;DHT22;10137;49.406;19.484;2023-12-22T06:58:47;2.20;99.90
19952;DHT22;10137;49.406;19.484;2023-12-22T07:01:18;2.10;99.90
19952;DHT22;10137;49.406;19.484;2023-12-22T07:03:46;2.20;99.90
19952;DHT22;10137;49.406;19.484;2023-12-22T07:06:14;2.20;99.90
19952;DHT22;10137;49.406;19.484;2023-12-22T07:11:40;2.10;99.90
19952;DHT22;10137;49.406;19.484;2023-12-22T07:14:08;2.10;99.90
19952;DHT22;10137;49.406;19.484;2023-12-22T07:16:36;2.10;99.90
19952;DHT22;10137;49.406;19.484;2023-12-22T07:19:03;2.10;99.90
19952;DHT22;10137;49.406;19.484;2023-12-22T07:21:30;2.00;99.90
19952;DHT22;10137;49.406;19.484;2023-12-22T07:23:57;2.10;99.90
19952;DHT22;10137;49.406;19.484;2023-12-22T07:26:24;2.00;99.90
19952;DHT22;10137;49.406;19.484;2023-12-22T07:28:52;1.90;99.90
19952;DHT22;10137;49.406;19.484;2023-12-22T07:31:20;1.90;99.90
19952;DHT22;10137;49.406;19.484;2023-12-22T07:33:47;1.80;99.90
19952;DHT22;10137;49.406;19.484;2023-12-22T07:36:14;1.70;99.90
19952;DHT22;10137;49.406;19.484;2023-12-22T07:38:41;1.80;99.90
19952;DHT22;10137;49.406;19.484;2023-12-22T07:41:08;1.80;99.90
19952;DHT22;10137;49.406;19.484;2023-12-22T07:43:35;1.80;99.90
19952;DHT22;10137;49.406;19.484;2023-12-22T07:46:02;1.80;99.90
19952;DHT22;10137;49.406;19.484;2023-12-22T07:48:30;1.80;99.90
19952;DHT22;10137;49.406;19.484;2023-12-22T07:50:57;1.80;99.90
19952;DHT22;10137;49.406;19.484;2023-12-22T07:53:24;1.90;99.90
19952;DHT22;10137;49.406;19.484;2023-12-22T07:55:51;2.00;99.90
19952;DHT22;10137;49.406;19.484;2023-12-22T07:58:18;1.90;99.90
19952;DHT22;10137;49.406;19.484;2023-12-22T08:00:45;2.00;99.90
19952;DHT22;10137;49.406;19.484;2023-12-22T08:03:12;2.00;99.90
19952;DHT22;10137;49.406;19.484;2023-12-22T08:05:40;2.10;99.90
19952;DHT22;10137;49.406;19.484;2023-12-22T08:08:08;2.10;99.90
19952;DHT22;10137;49.406;19.484;2023-12-22T08:10:35;2.20;99.90
19952;DHT22;10137;49.406;19.484;2023-12-22T08:13:02;2.20;99.90
19952;DHT22;10137;49.406;19.484;2023-12-22T08:15:29;2.20;99.90
19952;DHT22;10137;49.406;19.484;2023-12-22T08:17:57;2.10;99.90
19952;DHT22;10137;49.406;19.484;2023-12-22T08:20:24;2.10;99.90
19952;DHT22;10137;49.406;19.484;2023-12-22T08:22:53;2.20;99.90
19952;DHT22;10137;49.406;19.484;2023-12-22T08:25:20;2.20;99.90
19952;DHT22;10137;49.406;19.484;2023-12-22T08:27:50;2.20;99.90
19952;DHT22;10137;49.406;19.484;2023-12-22T08:30:18;2.20;99.90
19952;DHT22;10137;49.406;19.484;2023-12-22T08:32:45;2.20;99.90
19952;DHT22;10137;49.406;19.484;2023-12-22T08:35:12;2.30;99.90
19952;DHT22;10137;49.406;19.484;2023-12-22T08:37:40;2.20;99.90
19952;DHT22;10137;49.406;19.484;2023-12-22T08:40:12;2.20;99.90
19952;DHT22;10137;49.406;19.484;2023-12-22T08:42:40;2.20;99.90
19952;DHT22;10137;49.406;19.484;2023-12-22T08:45:07;2.20;99.90
19952;DHT22;10137;49.406;19.484;2023-12-22T08:47:35;2.10;99.90
19952;DHT22;10137;49.406;19.484;2023-12-22T08:50:05;2.00;99.90
19952;DHT22;10137;49.406;19.484;2023-12-22T08:52:33;2.00;99.90
19952;DHT22;10137;49.406;19.484;2023-12-22T08:55:03;1.90;99.90
19952;DHT22;10137;49.406;19.484;2023-12-22T08:57:32;1.80;99.90
19952;DHT22;10137;49.406;19.484;2023-12-22T08:59:59;1.70;99.90
19952;DHT22;10137;49.406;19.484;2023-12-22T09:02:26;1.70;99.90
19952;DHT22;10137;49.406;19.484;2023-12-22T09:04:53;1.60;99.90
19952;DHT22;10137;49.406;19.484;2023-12-22T09:07:20;1.30;99.90
19952;DHT22;10137;49.406;19.484;2023-12-22T09:09:48;1.30;99.90
19952;DHT22;10137;49.406;19.484;2023-12-22T09:12:15;1.30;99.90
19952;DHT22;10137;49.406;19.484;2023-12-22T09:14:44;1.30;99.90
19952;DHT22;10137;49.406;19.484;2023-12-22T09:17:11;1.20;99.90
19952;DHT22;10137;49.406;19.484;2023-12-22T09:19:38;1.10;99.90
19952;DHT22;10137;49.406;19.484;2023-12-22T09:22:05;1.10;99.90
19952;DHT22;10137;49.406;19.484;2023-12-22T09:24:33;1.10;99.90
19952;DHT22;10137;49.406;19.484;2023-12-22T09:27:00;1.10;99.90
19952;DHT22;10137;49.406;19.484;2023-12-22T09:29:28;1.00;99.90
19952;DHT22;10137;49.406;19.484;2023-12-22T09:31:59;1.00;99.90
19952;DHT22;10137;49.406;19.484;2023-12-22T09:34:26;1.00;99.90
19952;DHT22;10137;49.406;19.484;2023-12-22T09:36:54;1.10;99.90
19952;DHT22;10137;49.406;19.484;2023-12-22T09:39:22;1.00;99.90
19952;DHT22;10137;49.406;19.484;2023-12-22T09:41:49;1.00;99.90
19952;DHT22;10137;49.406;19.484;2023-12-22T09:44:19;1.00;99.90
19952;DHT22;10137;49.406;19.484;2023-12-22T09:46:47;1.00;99.90
19952;DHT22;10137;49.406;19.484;2023-12-22T09:49:17;1.00;99.90
19952;DHT22;10137;49.406;19.484;2023-12-22T09:51:46;1.00;99.90
19952;DHT22;10137;49.406;19.484;2023-12-22T09:54:13;1.10;99.90
19952;DHT22;10137;49.406;19.484;2023-12-22T09:56:41;1.10;99.90
19952;DHT22;10137;49.406;19.484;2023-12-22T09:59:13;1.10;99.90
19952;DHT22;10137;49.406;19.484;2023-12-22T10:01:42;1.10;99.90
19952;DHT22;10137;49.406;19.484;2023-12-22T10:04:11;1.10;99.90
19952;DHT22;10137;49.406;19.484;2023-12-22T10:06:41;1.00;99.90
19952;DHT22;10137;49.406;19.484;2023-12-22T10:09:09;1.10;99.90
19952;DHT22;10137;49.406;19.484;2023-12-22T10:11:37;1.10;99.90
19952;DHT22;10137;49.406;19.484;2023-12-22T10:14:06;1.20;99.90
19952;DHT22;10137;49.406;19.484;2023-12-22T10:16:35;1.10;99.90
19952;DHT22;10137;49.406;19.484;2023-12-22T10:19:03;1.30;99.90
19952;DHT22;10137;49.406;19.484;2023-12-22T10:21:30;1.30;99.90
19952;DHT22;10137;49.406;19.484;2023-12-22T10:23:59;1.30;99.90
19952;DHT22;10137;49.406;19.484;2023-12-22T10:26:38;1.30;99.90
19952;DHT22;10137;49.406;19.484;2023-12-22T10:29:05;1.30;99.90
19952;DHT22;10137;49.406;19.484;2023-12-22T10:31:40;1.40;99.90
19952;DHT22;10137;49.406;19.484;2023-12-22T10:34:13;1.40;99.90
19952;DHT22;10137;49.406;19.484;2023-12-22T10:36:48;1.60;99.90
19952;DHT22;10137;49.406;19.484;2023-12-22T10:39:17;1.70;99.90
19952;DHT22;10137;49.406;19.484;2023-12-22T10:41:44;1.80;99.90
19952;DHT22;10137;49.406;19.484;2023-12-22T10:44:14;1.90;99.90
19952;DHT22;10137;49.406;19.484;2023-12-22T10:46:47;1.90;99.90
19952;DHT22;10137;49.406;19.484;2023-12-22T10:49:14;2.00;99.90
19952;DHT22;10137;49.406;19.484;2023-12-22T10:51:44;2.00;99.90
19952;DHT22;10137;49.406;19.484;2023-12-22T10:54:13;2.00;99.90
19952;DHT22;10137;49.406;19.484;2023-12-22T10:56:41;2.00;99.90
19952;DHT22;10137;49.406;19.484;2023-12-22T10:59:09;2.00;99.90
19952;DHT22;10137;49.406;19.484;2023-12-22T11:01:39;2.00;99.90
19952;DHT22;10137;49.406;19.484;2023-12-22T11:04:08;2.00;99.90
19952;DHT22;10137;49.406;19.484;2023-12-22T11:06:37;2.10;99.90
19952;DHT22;10137;49.406;19.484;2023-12-22T11:09:08;2.20;99.90
19952;DHT22;10137;49.406;19.484;2023-12-22T11:11:37;2.30;99.90
19952;DHT22;10137;49.406;19.484;2023-12-22T11:14:10;2.30;99.90
19952;DHT22;10137;49.406;19.484;2023-12-22T11:16:39;2.30;99.90
19952;DHT22;10137;49.406;19.484;2023-12-22T11:19:14;2.20;99.90
19952;DHT22;10137;49.406;19.484;2023-12-22T11:21:41;2.20;99.90
19952;DHT22;10137;49.406;19.484;2023-12-22T11:24:12;2.10;99.90
19952;DHT22;10137;49.406;19.484;2023-12-22T11:26:42;2.10;99.90
19952;DHT22;10137;49.406;19.484;2023-12-22T11:29:13;2.10;99.90
19952;DHT22;10137;49.406;19.484;2023-12-22T11:31:41;2.00;99.90
19952;DHT22;10137;49.406;19.484;2023-12-22T11:34:09;2.00;99.90
19952;DHT22;10137;49.406;19.484;2023-12-22T11:36:41;1.90;99.90
19952;DHT22;10137;49.406;19.484;2023-12-22T11:39:12;1.70;99.90
19952;DHT22;10137;49.406;19.484;2023-12-22T11:41:42;1.60;99.90
19952;DHT22;10137;49.406;19.484;2023-12-22T11:44:14;1.60;99.90
19952;DHT22;10137;49.406;19.484;2023-12-22T11:46:49;1.60;99.90
19952;DHT22;10137;49.406;19.484;2023-12-22T11:49:17;1.50;99.90
19952;DHT22;10137;49.406;19.484;2023-12-22T11:51:47;1.60;99.90
19952;DHT22;10137;49.406;19.484;2023-12-22T11:54:44;1.50;99.90
19952;DHT22;10137;49.406;19.484;2023-12-22T11:57:31;1.40;99.90
19952;DHT22;10137;49.406;19.484;2023-12-22T12:00:07;1.50;99.90
19952;DHT22;10137;49.406;19.484;2023-12-22T12:02:35;1.50;99.90
19952;DHT22;10137;49.406;19.484;2023-12-22T12:05:11;1.60;99.90
19952;DHT22;10137;49.406;19.484;2023-12-22T12:07:42;1.70;99.90
19952;DHT22;10137;49.406;19.484;2023-12-22T12:10:12;1.60;99.90
19952;DHT22;10137;49.406;19.484;2023-12-22T12:12:40;1.70;99.90
19952;DHT22;10137;49.406;19.484;2023-12-22T12:15:10;1.70;99.90
19952;DHT22;10137;49.406;19.484;2023-12-22T12:17:40;1.70;99.90
19952;DHT22;10137;49.406;19.484;2023-12-22T12:20:08;1.90;99.90
19952;DHT22;10137;49.406;19.484;2023-12-22T12:22:35;1.80;99.90
19952;DHT22;10137;49.406;19.484;2023-12-22T12:25:07;1.80;99.90
19952;DHT22;10137;49.406;19.484;2023-12-22T12:27:34;1.80;99.90
19952;DHT22;10137;49.406;19.484;2023-12-22T12:30:13;1.80;99.90
19952;DHT22;10137;49.406;19.484;2023-12-22T12:32:44;1.90;99.90
19952;DHT22;10137;49.406;19.484;2023-12-22T12:35:11;1.90;99.90
19952;DHT22;10137;49.406;19.484;2023-12-22T12:37:41;1.90;99.90
19952;DHT22;10137;49.406;19.484;2023-12-22T12:40:13;1.90;99.90
19952;DHT22;10137;49.406;19.484;2023-12-22T12:42:45;1.90;99.90
19952;DHT22;10137;49.406;19.484;2023-12-22T12:45:14;1.90;99.90
19952;DHT22;10137;49.406;19.484;2023-12-22T12:47:41;1.80;99.90
19952;DHT22;10137;49.406;19.484;2023-12-22T12:50:11;1.70;99.90
19952;DHT22;10137;49.406;19.484;2023-12-22T12:55:35;1.70;99.90
19952;DHT22;10137;49.406;19.484;2023-12-22T12:58:04;1.70;99.90
19952;DHT22;10137;49.406;19.484;2023-12-22T13:00:49;1.70;99.90
19952;DHT22;10137;49.406;19.484;2023-12-22T13:03:28;1.70;99.90
19952;DHT22;10137;49.406;19.484;2023-12-22T13:06:11;1.70;99.90
19952;DHT22;10137;49.406;19.484;2023-12-22T13:08:48;1.70;99.90
19952;DHT22;10137;49.406;19.484;2023-12-22T13:11:21;1.60;99.90
19952;DHT22;10137;49.406;19.484;2023-12-22T13:13:52;1.60;99.90
19952;DHT22;10137;49.406;19.484;2023-12-22T13:16:27;1.60;99.90
19952;DHT22;10137;49.406;19.484;2023-12-22T13:18:59;1.60;99.90
19952;DHT22;10137;49.406;19.484;2023-12-22T13:24:10;1.50;99.90
19952;DHT22;10137;49.406;19.484;2023-12-22T13:26:38;1.60;99.90
19952;DHT22;10137;49.406;19.484;2023-12-22T13:29:05;1.60;99.90
19952;DHT22;10137;49.406;19.484;2023-12-22T13:31:36;1.60;99.90
19952;DHT22;10137;49.406;19.484;2023-12-22T13:34:03;1.50;99.90
19952;DHT22;10137;49.406;19.484;2023-12-22T13:36:34;1.40;99.90
19952;DHT22;10137;49.406;19.484;2023-12-22T13:44:11;1.40;99.90
19952;DHT22;10137;49.406;19.484;2023-12-22T13:46:40;1.40;99.90
19952;DHT22;10137;49.406;19.484;2023-12-22T13:49:08;1.40;99.90
19952;DHT22;10137;49.406;19.484;2023-12-22T13:51:40;1.50;99.90
19952;DHT22;10137;49.406;19.484;2023-12-22T13:54:09;1.50;99.90
19952;DHT22;10137;49.406;19.484;2023-12-22T13:56:36;1.50;99.90
19952;DHT22;10137;49.406;19.484;2023-12-22T13:59:05;1.50;99.90
19952;DHT22;10137;49.406;19.484;2023-12-22T14:01:32;1.50;99.90
19952;DHT22;10137;49.406;19.484;2023-12-22T14:04:01;1.50;99.90
19952;DHT22;10137;49.406;19.484;2023-12-22T14:06:29;1.50;99.90
19952;DHT22;10137;49.406;19.484;2023-12-22T14:08:56;1.50;99.90
19952;DHT22;10137;49.406;19.484;2023-12-22T14:11:23;1.60;99.90
19952;DHT22;10137;49.406;19.484;2023-12-22T14:13:50;1.60;99.90
19952;DHT22;10137;49.406;19.484;2023-12-22T14:16:17;1.50;99.90
19952;DHT22;10137;49.406;19.484;2023-12-22T14:18:43;1.50;99.90
19952;DHT22;10137;49.406;19.484;2023-12-22T14:21:12;1.50;99.90
19952;DHT22;10137;49.406;19.484;2023-12-22T14:23:39;1.50;99.90
19952;DHT22;10137;49.406;19.484;2023-12-22T14:26:06;1.50;99.90
19952;DHT22;10137;49.406;19.484;2023-12-22T14:28:33;1.50;99.90
19952;DHT22;10137;49.406;19.484;2023-12-22T14:33:35;1.50;99.90
19952;DHT22;10137;49.406;19.484;2023-12-22T14:36:03;1.50;99.90
19952;DHT22;10137;49.406;19.484;2023-12-22T14:38:31;1.40;99.90
19952;DHT22;10137;49.406;19.484;2023-12-22T14:40:58;1.50;99.90
19952;DHT22;10137;49.406;19.484;2023-12-22T14:43:25;1.50;99.90
19952;DHT22;10137;49.406;19.484;2023-12-22T14:45:52;1.60;99.90
19952;DHT22;10137;49.406;19.484;2023-12-22T14:48:19;1.50;99.90
19952;DHT22;10137;49.406;19.484;2023-12-22T14:50:46;1.50;99.90
19952;DHT22;10137;49.406;19.484;2023-12-22T14:53:13;1.50;99.90
19952;DHT22;10137;49.406;19.484;2023-12-22T14:55:42;1.40;99.90
19952;DHT22;10137;49.406;19.484;2023-12-22T14:58:09;1.30;99.90
19952;DHT22;10137;49.406;19.484;2023-12-22T15:00:40;1.30;99.90
19952;DHT22;10137;49.406;19.484;2023-12-22T15:03:07;1.30;99.90
19952;DHT22;10137;49.406;19.484;2023-12-22T15:05:34;1.30;99.90
19952;DHT22;10137;49.406;19.484;2023-12-22T15:08:01;1.30;99.90
19952;DHT22;10137;49.406;19.484;2023-12-22T15:10:28;1.20;99.90
19952;DHT22;10137;49.406;19.484;2023-12-22T15:13:03;1.30;99.90
19952;DHT22;10137;49.406;19.484;2023-12-22T15:15:30;1.20;99.90
19952;DHT22;10137;49.406;19.484;2023-12-22T15:17:57;1.30;99.90
19952;DHT22;10137;49.406;19.484;2023-12-22T15:20:27;1.20;99.90
19952;DHT22;10137;49.406;19.484;2023-12-22T15:22:54;1.10;99.90
19952;DHT22;10137;49.406;19.484;2023-12-22T15:25:21;1.20;99.90
19952;DHT22;10137;49.406;19.484;2023-12-22T15:27:51;1.10;99.90
19952;DHT22;10137;49.406;19.484;2023-12-22T15:30:19;1.10;99.90
19952;DHT22;10137;49.406;19.484;2023-12-22T15:32:46;1.10;99.90
19952;DHT22;10137;49.406;19.484;2023-12-22T15:35:13;1.10;99.90
19952;DHT22;10137;49.406;19.484;2023-12-22T15:37:49;1.10;99.90
19952;DHT22;10137;49.406;19.484;2023-12-22T15:40:17;1.10;99.90
19952;DHT22;10137;49.406;19.484;2023-12-22T15:42:44;1.10;99.90
19952;DHT22;10137;49.406;19.484;2023-12-22T15:45:25;1.10;99.90
19952;DHT22;10137;49.406;19.484;2023-12-22T15:50:27;1.00;99.90
19952;DHT22;10137;49.406;19.484;2023-12-22T15:52:55;1.00;99.90
19952;DHT22;10137;49.406;19.484;2023-12-22T15:57:58;0.90;99.90